createdAt,value
2023-04-16T00:00:07.872Z,6.67
2023-04-16T00:01:14.984Z,6.67
2023-04-16T00:02:16.568Z,6.65
2023-04-16T00:03:20.931Z,6.65
2023-04-16T00:04:22.596Z,6.67
2023-04-16T00:05:24.229Z,6.68
2023-04-16T00:06:25.873Z,6.69
2023-04-16T00:07:27.292Z,6.69
2023-04-16T00:08:31.186Z,6.69
2023-04-16T00:09:32.770Z,6.71
2023-04-16T00:10:37.164Z,6.71
2023-04-16T00:11:38.692Z,6.73
2023-04-16T00:12:40.459Z,6.74
2023-04-16T00:13:42.139Z,6.75
2023-04-16T00:14:43.897Z,6.76
2023-04-16T00:15:45.466Z,6.77
2023-04-16T00:16:47.144Z,6.79
2023-04-16T00:17:48.851Z,6.80
2023-04-16T00:18:55.596Z,6.79
2023-04-16T00:19:57.142Z,6.82
2023-04-16T00:21:00.971Z,6.83
2023-04-16T00:22:02.523Z,6.85
2023-04-16T00:23:04.120Z,6.86
2023-04-16T00:24:05.876Z,6.86
2023-04-16T00:25:07.552Z,6.83
2023-04-16T00:26:09.452Z,6.84
2023-04-16T00:27:11.229Z,6.85
2023-04-16T00:28:12.706Z,6.86
2023-04-16T00:29:16.273Z,6.86
2023-04-16T00:30:17.749Z,6.86
2023-04-16T00:31:27.938Z,6.87
2023-04-16T00:32:31.093Z,6.88
2023-04-16T00:33:32.736Z,6.90
2023-04-16T00:34:35.586Z,6.92
2023-04-16T00:35:37.155Z,6.93
2023-04-16T00:36:40.953Z,6.93
2023-04-16T00:37:42.370Z,6.95
2023-04-16T00:38:43.825Z,6.96
2023-04-16T00:39:49.990Z,6.97
2023-04-16T00:40:51.488Z,6.98
2023-04-16T00:41:52.909Z,7.00
2023-04-16T00:42:54.610Z,6.99
2023-04-16T00:43:56.334Z,6.99
2023-04-16T00:44:57.741Z,7.00
2023-04-16T00:45:59.551Z,7.00
2023-04-16T00:47:04.021Z,7.01
2023-04-16T00:48:05.904Z,7.02
2023-04-16T00:49:07.735Z,7.01
2023-04-16T00:50:11.896Z,7.03
2023-04-16T00:51:13.515Z,7.03
2023-04-16T00:52:15.869Z,7.03
2023-04-16T00:53:17.520Z,7.03
2023-04-16T00:54:19.560Z,7.04
2023-04-16T00:55:21.466Z,7.04
2023-04-16T00:56:24.512Z,7.03
2023-04-16T00:57:26.995Z,7.00
2023-04-16T00:58:32.116Z,7.00
2023-04-16T00:59:33.727Z,7.00
2023-04-16T01:00:35.423Z,7.01
2023-04-16T01:01:37.144Z,7.01
2023-04-16T01:02:39.309Z,7.01
2023-04-16T01:03:43.808Z,7.00
2023-04-16T01:04:49.771Z,7.04
2023-04-16T01:05:51.569Z,7.03
2023-04-16T01:06:53.159Z,7.03
2023-04-16T01:07:58.482Z,7.05
2023-04-16T01:09:02.288Z,7.07
2023-04-16T01:10:04.142Z,7.07
2023-04-16T01:11:06.058Z,7.07
2023-04-16T01:12:07.640Z,7.08
2023-04-16T01:13:09.756Z,7.09
2023-04-16T01:14:11.898Z,7.10
2023-04-16T01:15:13.410Z,7.10
2023-04-16T01:16:16.087Z,7.10
2023-04-16T01:17:17.595Z,7.08
2023-04-16T01:18:20.394Z,7.05
2023-04-16T01:19:22.103Z,7.06
2023-04-16T01:20:23.709Z,7.05
2023-04-16T01:21:28.189Z,7.03
2023-04-16T01:22:30.130Z,7.02
2023-04-16T01:23:31.711Z,7.03
2023-04-16T01:24:35.688Z,7.01
2023-04-16T01:25:37.688Z,7.01
2023-04-16T01:26:39.456Z,7.00
2023-04-16T01:27:41.675Z,6.99
2023-04-16T01:28:45.844Z,6.98
2023-04-16T01:29:47.445Z,6.97
2023-04-16T01:30:53.696Z,6.98
2023-04-16T01:32:15.775Z,6.98
2023-04-16T01:33:19.038Z,6.98
2023-04-16T01:34:20.732Z,6.99
2023-04-16T01:35:22.288Z,6.99
2023-04-16T01:36:26.899Z,6.98
2023-04-16T01:37:29.814Z,6.99
2023-04-16T01:38:31.364Z,6.99
2023-04-16T01:39:33.722Z,6.98
2023-04-16T01:40:36.371Z,7.01
2023-04-16T01:41:37.971Z,7.00
2023-04-16T01:42:39.613Z,7.01
2023-04-16T01:43:42.703Z,7.00
2023-04-16T01:44:44.572Z,7.00
2023-04-16T01:45:46.263Z,7.00
2023-04-16T01:46:48.035Z,7.02
2023-04-16T01:47:52.435Z,7.01
2023-04-16T01:48:57.458Z,7.03
2023-04-16T01:49:59.692Z,7.03
2023-04-16T01:51:01.313Z,7.05
2023-04-16T01:52:03.045Z,7.06
2023-04-16T01:53:05.281Z,7.08
2023-04-16T01:54:06.900Z,7.08
2023-04-16T01:55:08.617Z,7.10
2023-04-16T01:56:10.370Z,7.10
2023-04-16T01:57:11.958Z,7.12
2023-04-16T01:58:14.833Z,7.12
2023-04-16T01:59:16.971Z,7.13
2023-04-16T02:00:18.696Z,7.14
2023-04-16T02:01:20.527Z,7.15
2023-04-16T02:02:28.188Z,7.16
2023-04-16T02:03:31.387Z,7.18
2023-04-16T02:04:33.400Z,7.19
2023-04-16T02:05:35.456Z,7.21
2023-04-16T02:06:37.279Z,7.23
2023-04-16T02:07:38.802Z,7.23
2023-04-16T02:08:41.613Z,7.22
2023-04-16T02:09:43.348Z,7.23
2023-04-16T02:10:47.893Z,7.23
2023-04-16T02:11:50.279Z,7.23
2023-04-16T02:12:52.201Z,7.25
2023-04-16T02:13:53.847Z,7.26
2023-04-16T02:14:55.788Z,7.26
2023-04-16T02:16:00.219Z,7.26
2023-04-16T02:17:24.989Z,7.26
2023-04-16T02:18:40.241Z,7.28
2023-04-16T02:19:41.830Z,7.28
2023-04-16T02:20:46.047Z,7.29
2023-04-16T02:21:48.537Z,7.28
2023-04-16T02:22:50.993Z,7.29
2023-04-16T02:23:55.271Z,7.30
2023-04-16T02:25:01.746Z,7.31
2023-04-16T02:26:03.744Z,7.30
2023-04-16T02:27:05.662Z,7.31
2023-04-16T02:28:08.539Z,7.32
2023-04-16T02:29:13.032Z,7.30
2023-04-16T02:30:18.913Z,7.31
2023-04-16T02:31:22.549Z,7.32
2023-04-16T02:32:24.665Z,7.32
2023-04-16T02:33:26.765Z,7.33
2023-04-16T02:34:36.426Z,7.33
2023-04-16T02:35:38.569Z,7.32
2023-04-16T02:36:40.511Z,7.31
2023-04-16T02:37:41.989Z,7.31
2023-04-16T02:38:45.851Z,7.31
2023-04-16T02:39:47.500Z,7.32
2023-04-16T02:40:48.956Z,7.31
2023-04-16T02:41:53.213Z,7.31
2023-04-16T02:42:55.721Z,7.32
2023-04-16T02:43:57.332Z,7.32
2023-04-16T02:44:59.002Z,7.32
2023-04-16T02:46:00.785Z,7.33
2023-04-16T02:47:02.380Z,7.32
2023-04-16T02:48:04.083Z,7.34
2023-04-16T02:49:05.778Z,7.34
2023-04-16T02:50:07.741Z,7.35
2023-04-16T02:51:09.413Z,7.34
2023-04-16T02:52:10.847Z,7.35
2023-04-16T02:53:12.285Z,7.34
2023-04-16T02:54:13.711Z,7.35
2023-04-16T02:55:16.929Z,7.38
2023-04-16T02:56:18.356Z,7.37
2023-04-16T02:57:20.191Z,7.38
2023-04-16T02:58:22.679Z,7.36
2023-04-16T02:59:24.402Z,7.38
2023-04-16T03:00:26.143Z,7.37
2023-04-16T03:01:31.013Z,7.36
2023-04-16T03:02:32.728Z,7.36
2023-04-16T03:03:34.548Z,7.37
2023-04-16T03:04:36.137Z,7.36
2023-04-16T03:05:40.170Z,7.36
2023-04-16T03:06:41.967Z,7.35
2023-04-16T03:07:43.575Z,7.36
2023-04-16T03:08:45.617Z,7.35
2023-04-16T03:09:47.167Z,7.36
2023-04-16T03:10:48.625Z,7.38
2023-04-16T03:11:50.369Z,7.39
2023-04-16T03:12:51.819Z,7.40
2023-04-16T03:13:53.811Z,7.40
2023-04-16T03:14:55.445Z,7.42
2023-04-16T03:15:56.906Z,7.42
2023-04-16T03:16:59.618Z,7.43
2023-04-16T03:18:01.194Z,7.43
2023-04-16T03:19:03.680Z,7.44
2023-04-16T03:20:09.235Z,7.44
2023-04-16T03:21:10.731Z,7.44
2023-04-16T03:22:15.042Z,7.44
2023-04-16T03:23:16.727Z,7.44
2023-04-16T03:24:18.999Z,7.44
2023-04-16T03:25:26.184Z,7.43
2023-04-16T03:26:27.766Z,7.43
2023-04-16T03:27:30.442Z,7.44
2023-04-16T03:28:32.211Z,7.44
2023-04-16T03:29:36.229Z,7.44
2023-04-16T03:30:38.584Z,7.43
2023-04-16T03:31:41.611Z,7.43
2023-04-16T03:32:43.246Z,7.43
2023-04-16T03:33:45.847Z,7.42
2023-04-16T03:34:50.212Z,7.42
2023-04-16T03:35:58.570Z,7.42
2023-04-16T03:37:05.747Z,7.39
2023-04-16T03:38:07.445Z,7.40
2023-04-16T03:39:12.433Z,7.39
2023-04-16T03:40:14.513Z,7.40
2023-04-16T03:41:17.043Z,7.41
2023-04-16T03:42:18.715Z,7.41
2023-04-16T03:43:20.753Z,7.40
2023-04-16T03:44:25.054Z,7.40
2023-04-16T03:45:26.585Z,7.41
2023-04-16T03:46:28.309Z,7.42
2023-04-16T03:47:30.053Z,7.42
2023-04-16T03:48:35.708Z,7.42
2023-04-16T03:49:37.203Z,7.42
2023-04-16T03:50:38.799Z,7.40
2023-04-16T03:51:42.812Z,7.40
2023-04-16T03:52:45.037Z,7.41
2023-04-16T03:53:46.890Z,7.41
2023-04-16T03:54:49.748Z,7.40
2023-04-16T03:56:02.425Z,7.39
2023-04-16T03:57:04.592Z,7.40
2023-04-16T03:58:06.827Z,7.38
2023-04-16T03:59:09.385Z,7.39
2023-04-16T04:00:11.472Z,7.40
2023-04-16T04:01:16.359Z,7.40
2023-04-16T04:02:17.993Z,7.39
2023-04-16T04:03:20.208Z,7.41
2023-04-16T04:04:24.081Z,7.40
2023-04-16T04:05:26.042Z,7.42
2023-04-16T04:06:27.576Z,7.42
2023-04-16T04:07:29.454Z,7.43
2023-04-16T04:08:32.145Z,7.44
2023-04-16T04:09:34.187Z,7.45
2023-04-16T04:10:38.027Z,7.45
2023-04-16T04:11:40.933Z,7.46
2023-04-16T04:12:42.750Z,7.47
2023-04-16T04:13:44.568Z,7.46
2023-04-16T04:14:46.175Z,7.47
2023-04-16T04:15:47.613Z,7.48
2023-04-16T04:16:51.474Z,7.50
2023-04-16T04:17:53.329Z,7.50
2023-04-16T04:18:55.645Z,7.51
2023-04-16T04:20:01.190Z,7.51
2023-04-16T04:21:06.093Z,7.52
2023-04-16T04:22:08.467Z,7.52
2023-04-16T04:23:12.105Z,7.54
2023-04-16T04:24:13.676Z,7.54
2023-04-16T04:25:15.490Z,7.55
2023-04-16T04:26:18.884Z,7.56
2023-04-16T04:27:20.778Z,7.56
2023-04-16T04:28:22.450Z,7.55
2023-04-16T04:29:24.020Z,7.55
2023-04-16T04:30:25.926Z,7.55
2023-04-16T04:31:29.030Z,7.56
2023-04-16T04:32:31.357Z,7.58
2023-04-16T04:33:33.433Z,7.57
2023-04-16T04:34:35.351Z,7.58
2023-04-16T04:35:37.521Z,7.58
2023-04-16T04:36:39.169Z,7.60
2023-04-16T04:37:41.029Z,7.61
2023-04-16T04:38:48.819Z,7.62
2023-04-16T04:39:50.588Z,7.64
2023-04-16T04:40:52.914Z,7.64
2023-04-16T04:41:57.337Z,7.64
2023-04-16T04:42:58.972Z,7.62
2023-04-16T04:44:00.817Z,7.62
2023-04-16T04:45:02.396Z,7.61
2023-04-16T04:46:06.483Z,7.60
2023-04-16T04:47:08.496Z,7.59
2023-04-16T04:48:10.237Z,7.59
2023-04-16T04:49:12.158Z,7.61
2023-04-16T04:50:13.738Z,7.62
2023-04-16T04:51:16.224Z,7.62
2023-04-16T04:52:20.761Z,7.62
2023-04-16T04:53:22.662Z,7.62
2023-04-16T04:54:24.441Z,7.60
2023-04-16T04:55:28.246Z,7.56
2023-04-16T04:56:30.673Z,7.55
2023-04-16T04:57:32.191Z,7.56
2023-04-16T04:58:34.234Z,7.58
2023-04-16T04:59:36.748Z,7.60
2023-04-16T05:00:38.372Z,7.62
2023-04-16T05:01:40.046Z,7.64
2023-04-16T05:02:41.776Z,7.64
2023-04-16T05:03:43.971Z,7.64
2023-04-16T05:04:45.882Z,7.64
2023-04-16T05:05:47.553Z,7.65
2023-04-16T05:06:50.427Z,7.64
2023-04-16T05:07:53.493Z,7.65
2023-04-16T05:08:54.931Z,7.65
2023-04-16T05:09:56.493Z,7.67
2023-04-16T05:10:57.934Z,7.68
2023-04-16T05:11:59.433Z,7.69
2023-04-16T05:13:01.111Z,7.69
2023-04-16T05:14:02.558Z,7.68
2023-04-16T05:15:04.473Z,7.67
2023-04-16T05:16:06.210Z,7.68
2023-04-16T05:17:08.094Z,7.67
2023-04-16T05:18:09.868Z,7.65
2023-04-16T05:19:13.199Z,7.66
2023-04-16T05:20:15.417Z,7.67
2023-04-16T05:21:16.940Z,7.68
2023-04-16T05:22:19.060Z,7.68
2023-04-16T05:23:24.272Z,7.67
2023-04-16T05:24:25.733Z,7.69
2023-04-16T05:25:27.141Z,7.72
2023-04-16T05:26:28.554Z,7.73
2023-04-16T05:27:32.076Z,7.74
2023-04-16T05:28:33.996Z,7.75
2023-04-16T05:29:35.619Z,7.75
2023-04-16T05:30:37.162Z,7.77
2023-04-16T05:31:38.633Z,7.78
2023-04-16T05:32:41.280Z,7.78
2023-04-16T05:33:42.811Z,7.80
2023-04-16T05:34:44.400Z,7.81
2023-04-16T05:35:45.853Z,7.84
2023-04-16T05:36:47.290Z,7.83
2023-04-16T05:37:48.672Z,7.84
2023-04-16T05:38:50.156Z,7.85
2023-04-16T05:39:51.642Z,7.87
2023-04-16T05:40:53.072Z,7.89
2023-04-16T05:41:54.646Z,7.90
2023-04-16T05:42:56.364Z,7.92
2023-04-16T05:43:58.092Z,7.92
2023-04-16T05:45:00.042Z,7.94
2023-04-16T05:46:01.619Z,7.95
2023-04-16T05:47:03.063Z,7.95
2023-04-16T05:48:04.623Z,7.95
2023-04-16T05:49:06.057Z,7.96
2023-04-16T05:50:07.700Z,7.95
2023-04-16T05:51:09.315Z,7.94
2023-04-16T05:52:10.764Z,7.93
2023-04-16T05:53:14.024Z,7.93
2023-04-16T05:54:15.726Z,7.94
2023-04-16T05:55:17.141Z,7.96
2023-04-16T05:56:20.939Z,7.96
2023-04-16T05:57:22.459Z,7.96
2023-04-16T05:58:26.500Z,7.97
2023-04-16T05:59:28.063Z,7.97
2023-04-16T06:00:32.572Z,7.99
2023-04-16T06:01:34.552Z,7.99
2023-04-16T06:02:37.517Z,8.01
2023-04-16T06:03:41.494Z,8.02
2023-04-16T06:04:43.771Z,8.02
2023-04-16T06:05:45.512Z,8.04
2023-04-16T06:06:46.978Z,8.04
2023-04-16T06:07:48.484Z,8.05
2023-04-16T06:08:50.227Z,8.04
2023-04-16T06:09:51.791Z,8.07
2023-04-16T06:10:53.621Z,8.04
2023-04-16T06:11:55.576Z,8.04
2023-04-16T06:12:57.037Z,8.05
2023-04-16T06:13:58.507Z,8.06
2023-04-16T06:15:00.353Z,8.08
2023-04-16T06:16:02.953Z,8.08
2023-04-16T06:17:04.555Z,8.07
2023-04-16T06:18:06.006Z,8.07
2023-04-16T06:19:09.724Z,8.08
2023-04-16T06:20:11.929Z,8.09
2023-04-16T06:21:13.509Z,8.10
2023-04-16T06:22:15.032Z,8.11
2023-04-16T06:23:16.669Z,8.12
2023-04-16T06:24:18.484Z,8.12
2023-04-16T06:25:19.960Z,8.12
2023-04-16T06:26:21.589Z,8.11
2023-04-16T06:27:23.123Z,8.13
2023-04-16T06:28:24.716Z,8.14
2023-04-16T06:29:37.041Z,8.15
2023-04-16T06:30:44.428Z,8.18
2023-04-16T06:31:48.635Z,8.18
2023-04-16T06:32:50.261Z,8.19
2023-04-16T06:33:51.711Z,8.20
2023-04-16T06:34:53.239Z,8.21
2023-04-16T06:35:55.854Z,8.20
2023-04-16T06:36:57.306Z,8.21
2023-04-16T06:37:58.854Z,8.21
2023-04-16T06:39:00.449Z,8.21
2023-04-16T06:40:02.148Z,8.22
2023-04-16T06:41:03.647Z,8.23
2023-04-16T06:42:05.398Z,8.26
2023-04-16T06:43:06.920Z,8.26
2023-04-16T06:44:08.488Z,8.26
2023-04-16T06:45:10.496Z,8.27
2023-04-16T06:46:12.056Z,8.28
2023-04-16T06:47:13.616Z,8.29
2023-04-16T06:48:16.662Z,8.30
2023-04-16T06:49:18.500Z,8.32
2023-04-16T06:50:20.472Z,8.32
2023-04-16T06:51:22.169Z,8.35
2023-04-16T06:52:23.654Z,8.32
2023-04-16T06:53:25.195Z,8.34
2023-04-16T06:54:26.693Z,8.35
2023-04-16T06:55:28.109Z,8.36
2023-04-16T06:56:29.707Z,8.38
2023-04-16T06:57:31.221Z,8.36
2023-04-16T06:58:32.958Z,8.34
2023-04-16T06:59:34.592Z,8.34
2023-04-16T07:00:36.105Z,8.33
2023-04-16T07:01:37.698Z,8.34
2023-04-16T07:02:41.541Z,8.34
2023-04-16T07:03:43.199Z,8.34
2023-04-16T07:04:44.970Z,8.35
2023-04-16T07:05:46.779Z,8.37
2023-04-16T07:06:48.179Z,8.39
2023-04-16T07:07:49.661Z,8.41
2023-04-16T07:08:51.117Z,8.42
2023-04-16T07:09:52.718Z,8.44
2023-04-16T07:10:54.557Z,8.46
2023-04-16T07:11:56.073Z,8.47
2023-04-16T07:12:57.618Z,8.48
2023-04-16T07:14:01.482Z,8.51
2023-04-16T07:15:03.013Z,8.53
2023-04-16T07:16:04.608Z,8.54
2023-04-16T07:17:06.090Z,8.57
2023-04-16T07:18:07.666Z,8.58
2023-04-16T07:19:09.711Z,8.57
2023-04-16T07:20:11.433Z,8.58
2023-04-16T07:21:12.945Z,8.59
2023-04-16T07:22:14.488Z,8.60
2023-04-16T07:23:15.984Z,8.61
2023-04-16T07:24:17.977Z,8.60
2023-04-16T07:25:19.449Z,8.58
2023-04-16T07:26:20.898Z,8.58
2023-04-16T07:27:22.328Z,8.58
2023-04-16T07:28:25.236Z,8.57
2023-04-16T07:29:26.640Z,8.57
2023-04-16T07:30:36.085Z,8.57
2023-04-16T07:31:38.516Z,8.58
2023-04-16T07:32:42.377Z,8.59
2023-04-16T07:33:43.884Z,8.59
2023-04-16T07:34:45.729Z,8.57
2023-04-16T07:35:47.550Z,8.57
2023-04-16T07:36:51.034Z,8.57
2023-04-16T07:37:52.636Z,8.58
2023-04-16T07:38:54.083Z,8.60
2023-04-16T07:39:57.589Z,8.61
2023-04-16T07:40:59.156Z,8.64
2023-04-16T07:42:00.786Z,8.65
2023-04-16T07:43:02.260Z,8.64
2023-04-16T07:44:03.860Z,8.67
2023-04-16T07:45:08.261Z,8.68
2023-04-16T07:46:12.027Z,8.69
2023-04-16T07:47:13.483Z,8.71
2023-04-16T07:48:14.937Z,8.71
2023-04-16T07:49:16.395Z,8.72
2023-04-16T07:50:21.861Z,8.74
2023-04-16T07:51:23.661Z,8.75
2023-04-16T07:52:25.473Z,8.76
2023-04-16T07:53:26.949Z,8.76
2023-04-16T07:54:29.184Z,8.75
2023-04-16T07:55:30.794Z,8.77
2023-04-16T07:56:32.474Z,8.77
2023-04-16T07:57:36.204Z,8.76
2023-04-16T07:58:37.699Z,8.77
2023-04-16T07:59:42.269Z,8.78
2023-04-16T08:00:43.724Z,8.80
2023-04-16T08:01:45.269Z,8.80
2023-04-16T08:02:49.009Z,8.80
2023-04-16T08:03:51.129Z,8.80
2023-04-16T08:04:58.180Z,8.81
2023-04-16T08:05:59.802Z,8.78
2023-04-16T08:07:01.233Z,8.76
2023-04-16T08:08:05.354Z,8.76
2023-04-16T08:09:06.882Z,8.73
2023-04-16T08:10:11.133Z,8.70
2023-04-16T08:11:12.605Z,8.69
2023-04-16T08:12:14.122Z,8.69
2023-04-16T08:13:15.772Z,8.71
2023-04-16T08:14:17.497Z,8.75
2023-04-16T08:15:19.418Z,8.77
2023-04-16T08:16:21.165Z,8.80
2023-04-16T08:17:22.868Z,8.82
2023-04-16T08:18:24.503Z,8.82
2023-04-16T08:19:25.942Z,8.81
2023-04-16T08:20:27.558Z,8.83
2023-04-16T08:21:29.389Z,8.85
2023-04-16T08:22:33.475Z,8.86
2023-04-16T08:23:35.063Z,8.88
2023-04-16T08:24:36.490Z,8.90
2023-04-16T08:25:37.987Z,8.93
2023-04-16T08:26:39.567Z,8.92
2023-04-16T08:27:41.131Z,8.94
2023-04-16T08:28:42.569Z,8.87
2023-04-16T08:29:44.604Z,8.89
2023-04-16T08:30:46.315Z,8.91
2023-04-16T08:31:47.899Z,8.91
2023-04-16T08:32:50.238Z,8.93
2023-04-16T08:33:54.353Z,8.97
2023-04-16T08:34:56.189Z,8.98
2023-04-16T08:35:57.662Z,8.98
2023-04-16T08:36:59.424Z,8.99
2023-04-16T08:38:02.371Z,9.00
2023-04-16T08:39:04.444Z,9.01
2023-04-16T08:40:06.333Z,9.02
2023-04-16T08:41:09.586Z,9.05
2023-04-16T08:42:30.674Z,9.07
2023-04-16T08:43:37.623Z,9.10
2023-04-16T08:44:42.457Z,9.09
2023-04-16T08:45:44.030Z,9.07
2023-04-16T08:46:46.509Z,9.07
2023-04-16T08:47:49.406Z,9.10
2023-04-16T08:48:54.820Z,9.13
2023-04-16T08:49:58.858Z,9.14
2023-04-16T08:51:01.659Z,9.14
2023-04-16T08:52:06.131Z,9.17
2023-04-16T08:53:10.580Z,9.17
2023-04-16T08:54:16.983Z,9.17
2023-04-16T08:55:19.800Z,9.18
2023-04-16T08:56:23.143Z,9.18
2023-04-16T08:57:27.028Z,9.18
2023-04-16T08:58:29.522Z,9.16
2023-04-16T08:59:31.126Z,9.16
2023-04-16T09:00:33.864Z,9.17
2023-04-16T09:01:35.765Z,9.15
2023-04-16T09:02:38.365Z,9.12
2023-04-16T09:03:41.549Z,9.13
2023-04-16T09:04:43.782Z,9.13
2023-04-16T09:05:46.398Z,9.13
2023-04-16T09:06:48.525Z,9.11
2023-04-16T09:07:50.519Z,9.12
2023-04-16T09:08:54.466Z,9.12
2023-04-16T09:09:57.989Z,9.12
2023-04-16T09:10:59.595Z,9.13
2023-04-16T09:12:01.207Z,9.11
2023-04-16T09:13:02.698Z,9.11
2023-04-16T09:14:04.750Z,9.11
2023-04-16T09:15:06.707Z,9.09
2023-04-16T09:16:09.506Z,9.09
2023-04-16T09:17:12.064Z,9.09
2023-04-16T09:18:15.783Z,9.07
2023-04-16T09:19:17.703Z,9.08
2023-04-16T09:20:19.890Z,9.10
2023-04-16T09:21:23.790Z,9.11
2023-04-16T09:22:25.815Z,9.10
2023-04-16T09:23:27.265Z,9.08
2023-04-16T09:24:28.712Z,9.06
2023-04-16T09:25:34.809Z,9.03
2023-04-16T09:26:41.144Z,9.04
2023-04-16T09:27:42.666Z,9.04
2023-04-16T09:28:46.373Z,9.06
2023-04-16T09:29:47.864Z,9.09
2023-04-16T09:30:49.560Z,9.09
2023-04-16T09:32:17.396Z,9.09
2023-04-16T09:33:23.352Z,9.06
2023-04-16T09:34:27.405Z,9.06
2023-04-16T09:35:44.461Z,9.07
2023-04-16T09:36:48.375Z,9.09
2023-04-16T09:37:58.732Z,9.10
2023-04-16T09:39:00.639Z,9.13
2023-04-16T09:40:03.770Z,9.15
2023-04-16T09:41:08.818Z,9.18
2023-04-16T09:42:12.639Z,9.21
2023-04-16T09:43:14.913Z,9.20
2023-04-16T09:44:16.365Z,9.19
2023-04-16T09:45:17.834Z,9.20
2023-04-16T09:46:19.517Z,9.21
2023-04-16T09:47:22.250Z,9.22
2023-04-16T09:48:30.742Z,9.23
2023-04-16T09:49:34.482Z,9.24
2023-04-16T09:50:35.985Z,9.25
2023-04-16T09:51:37.789Z,9.27
2023-04-16T09:52:39.330Z,9.29
2023-04-16T09:53:40.977Z,9.30
2023-04-16T09:54:54.621Z,9.28
2023-04-16T09:56:03.230Z,9.31
2023-04-16T09:57:05.861Z,9.27
2023-04-16T09:58:07.289Z,9.28
2023-04-16T09:59:09.799Z,9.30
2023-04-16T10:00:11.864Z,9.33
2023-04-16T10:01:13.501Z,9.35
2023-04-16T10:02:16.394Z,9.36
2023-04-16T10:03:18.306Z,9.37
2023-04-16T10:04:20.491Z,9.39
2023-04-16T10:05:22.042Z,9.40
2023-04-16T10:06:26.071Z,9.43
2023-04-16T10:07:33.469Z,9.43
2023-04-16T10:08:37.118Z,9.40
2023-04-16T10:09:39.029Z,9.39
2023-04-16T10:10:41.082Z,9.40
2023-04-16T10:11:45.911Z,9.37
2023-04-16T10:12:47.363Z,9.34
2023-04-16T10:13:49.468Z,9.35
2023-04-16T10:14:50.964Z,9.37
2023-04-16T10:15:52.508Z,9.39
2023-04-16T10:16:55.671Z,9.40
2023-04-16T10:17:58.072Z,9.37
2023-04-16T10:18:59.827Z,9.31
2023-04-16T10:20:02.082Z,9.29
2023-04-16T10:21:04.209Z,9.31
2023-04-16T10:22:05.880Z,9.28
2023-04-16T10:23:07.426Z,9.29
2023-04-16T10:24:09.910Z,9.26
2023-04-16T10:25:19.357Z,9.24
2023-04-16T10:26:32.024Z,9.17
2023-04-16T10:27:33.780Z,9.20
2023-04-16T10:28:36.311Z,9.22
2023-04-16T10:29:37.956Z,9.24
2023-04-16T10:30:39.919Z,9.26
2023-04-16T10:31:41.809Z,9.28
2023-04-16T10:32:44.658Z,9.28
2023-04-16T10:33:46.671Z,9.29
2023-04-16T10:34:48.176Z,9.30
2023-04-16T10:36:04.703Z,9.30
2023-04-16T10:37:09.032Z,9.32
2023-04-16T10:38:32.614Z,9.31
2023-04-16T10:39:37.550Z,9.34
2023-04-16T10:40:39.231Z,9.35
2023-04-16T10:41:42.745Z,9.35
2023-04-16T10:42:53.432Z,9.33
2023-04-16T10:44:05.755Z,9.31
2023-04-16T10:45:10.791Z,9.23
2023-04-16T10:46:19.943Z,9.24
2023-04-16T10:47:24.557Z,9.16
2023-04-16T10:48:28.995Z,9.17
2023-04-16T10:49:35.689Z,9.17
2023-04-16T10:50:37.553Z,9.19
2023-04-16T10:51:39.117Z,9.22
2023-04-16T10:52:40.654Z,9.26
2023-04-16T10:53:42.187Z,9.27
2023-04-16T10:54:43.794Z,9.24
2023-04-16T10:56:12.662Z,9.24
2023-04-16T10:57:18.331Z,9.24
2023-04-16T10:58:35.216Z,9.21
2023-04-16T10:59:37.386Z,9.19
2023-04-16T11:00:51.888Z,9.17
2023-04-16T11:01:58.224Z,9.16
2023-04-16T11:03:02.102Z,9.16
2023-04-16T11:04:22.080Z,9.18
2023-04-16T11:05:24.560Z,9.17
2023-04-16T11:06:28.554Z,9.17
2023-04-16T11:07:34.057Z,9.11
2023-04-16T11:08:51.224Z,9.05
2023-04-16T11:10:00.231Z,9.05
2023-04-16T11:11:07.882Z,9.07
2023-04-16T11:12:13.132Z,9.14
2023-04-16T11:13:15.828Z,9.15
2023-04-16T11:14:17.369Z,9.19
2023-04-16T11:15:23.416Z,9.16
2023-04-16T11:16:25.670Z,9.13
2023-04-16T11:17:38.976Z,9.13
2023-04-16T11:18:51.146Z,9.14
2023-04-16T11:19:53.463Z,9.17
2023-04-16T11:20:55.459Z,9.17
2023-04-16T11:21:56.978Z,9.13
2023-04-16T11:22:58.462Z,9.14
2023-04-16T11:24:00.150Z,9.14
2023-04-16T11:25:01.754Z,9.19
2023-04-16T11:26:03.466Z,9.22
2023-04-16T11:27:05.444Z,9.23
2023-04-16T11:28:06.900Z,9.21
2023-04-16T11:29:13.918Z,9.19
2023-04-16T11:30:15.621Z,9.14
2023-04-16T11:31:17.182Z,9.20
2023-04-16T11:32:24.581Z,9.22
2023-04-16T11:33:26.362Z,9.26
2023-04-16T11:34:30.816Z,9.28
2023-04-16T11:35:32.497Z,9.32
2023-04-16T11:36:44.118Z,9.35
2023-04-16T11:37:46.941Z,9.39
2023-04-16T11:38:48.752Z,9.40
2023-04-16T11:39:53.319Z,9.43
2023-04-16T11:40:55.198Z,9.49
2023-04-16T11:41:56.783Z,9.53
2023-04-16T11:43:04.976Z,9.57
2023-04-16T11:44:18.719Z,9.62
2023-04-16T11:45:20.226Z,9.61
2023-04-16T11:46:27.562Z,9.63
2023-04-16T11:47:31.894Z,9.65
2023-04-16T11:48:53.010Z,9.68
2023-04-16T11:49:54.490Z,9.68
2023-04-16T11:50:56.766Z,9.68
2023-04-16T11:51:58.650Z,9.68
2023-04-16T11:53:04.652Z,9.71
2023-04-16T11:54:06.113Z,9.73
2023-04-16T11:55:07.709Z,9.77
2023-04-16T11:56:09.298Z,9.78
2023-04-16T11:57:11.362Z,9.80
2023-04-16T11:58:13.155Z,9.79
2023-04-16T11:59:18.971Z,9.83
2023-04-16T12:00:23.708Z,9.82
2023-04-16T12:01:26.684Z,9.84
2023-04-16T12:02:42.577Z,9.81
2023-04-16T12:03:49.876Z,9.79
2023-04-16T12:04:51.816Z,9.77
2023-04-16T12:05:53.346Z,9.81
2023-04-16T12:07:27.439Z,9.80
2023-04-16T12:08:32.882Z,9.82
2023-04-16T12:09:37.128Z,9.83
2023-04-16T12:10:56.306Z,9.80
2023-04-16T12:11:57.936Z,9.82
2023-04-16T12:13:11.763Z,9.84
2023-04-16T12:14:13.414Z,9.86
2023-04-16T12:15:17.202Z,9.88
2023-04-16T12:16:19.934Z,9.91
2023-04-16T12:17:21.700Z,9.87
2023-04-16T12:18:24.847Z,9.87
2023-04-16T12:19:26.461Z,9.89
2023-04-16T12:20:41.293Z,9.90
2023-04-16T12:21:46.734Z,9.96
2023-04-16T12:22:49.786Z,9.96
2023-04-16T12:23:53.536Z,10.00
2023-04-16T12:24:58.717Z,9.99
2023-04-16T12:26:10.894Z,10.03
2023-04-16T12:27:12.970Z,10.07
2023-04-16T12:28:16.468Z,10.12
2023-04-16T12:29:27.474Z,10.15
2023-04-16T12:30:32.623Z,10.16
2023-04-16T12:31:38.050Z,10.16
2023-04-16T12:32:40.622Z,10.15
2023-04-16T12:33:42.463Z,10.14
2023-04-16T12:34:51.571Z,10.14
2023-04-16T12:35:53.072Z,10.16
2023-04-16T12:37:06.404Z,10.18
2023-04-16T12:38:07.829Z,10.17
2023-04-16T12:39:11.000Z,10.18
2023-04-16T12:40:12.577Z,10.14
2023-04-16T12:41:16.157Z,10.11
2023-04-16T12:42:17.571Z,10.09
2023-04-16T12:43:21.547Z,10.08
2023-04-16T12:44:22.997Z,10.10
2023-04-16T12:45:27.080Z,10.03
2023-04-16T12:46:28.661Z,9.98
2023-04-16T12:47:30.586Z,9.98
2023-04-16T12:48:32.576Z,9.98
2023-04-16T12:49:36.335Z,10.00
2023-04-16T12:50:42.224Z,10.02
2023-04-16T12:51:46.835Z,9.97
2023-04-16T12:52:48.626Z,9.96
2023-04-16T12:53:50.480Z,10.00
2023-04-16T12:54:52.290Z,10.01
2023-04-16T12:55:53.949Z,10.06
2023-04-16T12:56:55.746Z,10.09
2023-04-16T12:57:57.219Z,10.12
2023-04-16T12:58:58.997Z,10.13
2023-04-16T13:00:00.930Z,10.15
2023-04-16T13:01:04.749Z,10.14
2023-04-16T13:02:07.327Z,10.14
2023-04-16T13:03:09.015Z,10.10
2023-04-16T13:04:10.779Z,10.13
2023-04-16T13:05:14.525Z,10.17
2023-04-16T13:06:16.506Z,10.19
2023-04-16T13:07:19.939Z,10.20
2023-04-16T13:08:21.391Z,10.16
2023-04-16T13:09:23.038Z,10.17
2023-04-16T13:10:28.020Z,10.17
2023-04-16T13:11:29.646Z,10.19
2023-04-16T13:12:32.633Z,10.18
2023-04-16T13:13:34.363Z,10.19
2023-04-16T13:14:35.935Z,10.18
2023-04-16T13:15:40.264Z,10.18
2023-04-16T13:16:42.022Z,10.19
2023-04-16T13:17:43.596Z,10.21
2023-04-16T13:18:45.554Z,10.26
2023-04-16T13:19:52.336Z,10.29
2023-04-16T13:20:55.984Z,10.32
2023-04-16T13:22:00.868Z,10.34
2023-04-16T13:23:04.853Z,10.37
2023-04-16T13:24:06.526Z,10.41
2023-04-16T13:25:08.564Z,10.44
2023-04-16T13:26:09.965Z,10.48
2023-04-16T13:27:12.554Z,10.50
2023-04-16T13:28:14.383Z,10.54
2023-04-16T13:29:15.970Z,10.57
2023-04-16T13:30:17.499Z,10.60
2023-04-16T13:31:32.988Z,10.64
2023-04-16T13:32:50.536Z,10.69
2023-04-16T13:33:52.233Z,10.69
2023-04-16T13:34:53.707Z,10.70
2023-04-16T13:35:55.561Z,10.71
2023-04-16T13:36:57.030Z,10.72
2023-04-16T13:37:58.547Z,10.72
2023-04-16T13:39:00.234Z,10.75
2023-04-16T13:40:01.840Z,10.80
2023-04-16T13:41:03.442Z,10.84
2023-04-16T13:42:07.519Z,10.89
2023-04-16T13:43:09.224Z,10.90
2023-04-16T13:44:10.957Z,10.93
2023-04-16T13:45:12.732Z,10.97
2023-04-16T13:46:14.581Z,10.94
2023-04-16T13:47:16.678Z,10.97
2023-04-16T13:48:18.495Z,10.96
2023-04-16T13:49:20.470Z,10.98
2023-04-16T13:50:22.026Z,10.99
2023-04-16T13:51:23.530Z,10.99
2023-04-16T13:52:24.979Z,10.99
2023-04-16T13:53:26.624Z,11.00
2023-04-16T13:54:28.100Z,11.03
2023-04-16T13:55:30.983Z,11.02
2023-04-16T13:56:32.418Z,11.03
2023-04-16T13:57:34.453Z,11.04